Time;durP1;ratioP1;P1;durP2;ratioP2;P2;SDS_P1;SDS_P2;PMS_P1;PMS_P2;Temp;Humidity;BMP_temperature;BMP_pressure;BME280_temperature;BME280_humidity;BME280_pressure;Samples;Min_cycle;Max_cycle;Signal;HPM_P1;HPM_P2
2023/04/08 00:01:48;;;;;;;;;;;;;;;13.16;55.63;101134.16;4942374;28;6977;-72
2023/04/08 00:04:14;;;;;;;;;;;;;;;13.14;56.21;101133.22;4940350;28;7016;-74
2023/04/08 00:06:40;;;;;;;;;;;;;;;13.15;55.88;101137.56;4937196;28;6835;-77
2023/04/08 00:09:06;;;;;;;;;;;;;;;13.17;55.47;101145.31;4929930;28;8637;-73
2023/04/08 00:11:31;;;;;;;;;;;;;;;13.15;56.19;101142.69;4954429;28;7079;-76
2023/04/08 00:13:57;;;;;;;;;;;;;;;13.17;56.33;101148.78;4959534;28;6772;-73
2023/04/08 00:16:22;;;;;;;;;;;;;;;13.17;55.80;101146.22;4958967;28;6799;-72
2023/04/08 00:18:48;;;;;;;;;;;;;;;13.18;55.84;101147.09;4914562;28;7137;-73
2023/04/08 00:21:19;;;;;;;;;;;;;;;13.19;55.43;101144.59;4956295;28;7789;-75
2023/04/08 00:23:46;;;;;;;;;;;;;;;13.19;56.08;101148.88;4922887;28;7028;-77
2023/04/08 00:26:11;;;;;;;;;;;;;;;13.20;55.97;101156.66;4938718;28;6835;-74
2023/04/08 00:28:37;;;;;;;;;;;;;;;13.19;56.21;101149.75;4938333;28;7086;-73
2023/04/08 00:31:03;;;;;;;;;;;;;;;13.19;55.98;101147.19;4939768;28;6974;-73
2023/04/08 00:33:30;;;;;;;;;;;;;;;13.20;56.03;101153.22;4929833;28;7864;-77
2023/04/08 00:35:55;;;;;;;;;;;;;;;13.20;55.70;101148.06;4923421;28;7015;-75
2023/04/08 00:38:21;;;;;;;;;;;;;;;13.19;55.46;101154.91;4945022;28;7051;-73
2023/04/08 00:40:46;;;;;;;;;;;;;;;13.18;56.29;101144.50;4955423;28;6780;-74
2023/04/08 00:43:12;;;;;;;;;;;;;;;13.18;55.82;101152.22;4938100;28;8169;-74
2023/04/08 00:45:38;;;;;;;;;;;;;;;13.17;56.38;101147.91;4934454;28;7225;-74
2023/04/08 00:48:04;;;;;;;;;;;;;;;13.17;55.57;101147.91;4957565;28;7164;-73
2023/04/08 00:50:30;;;;;;;;;;;;;;;13.17;55.88;101151.38;4941108;28;6800;-72
2023/04/08 00:52:56;;;;;;;;;;;;;;;13.17;56.49;101151.38;4952027;28;7192;-73
2023/04/08 00:55:22;;;;;;;;;;;;;;;13.16;55.87;101152.19;4938204;28;6990;-73
2023/04/08 00:57:48;;;;;;;;;;;;;;;13.14;55.65;101148.66;4926380;29;6984;-73
2023/04/08 01:00:15;;;;;;;;;;;;;;;13.13;56.13;101144.28;4940197;28;7359;-75
2023/04/08 01:03:17;;;;;;;;;;;;;;;13.11;56.15;101145.91;4940694;28;6796;-75
2023/04/08 01:06:05;;;;;;;;;;;;;;;13.08;56.05;101150.91;4955991;28;7225;-74
2023/04/08 01:08:37;;;;;;;;;;;;;;;13.07;56.52;101149.16;4956637;28;6820;-73
2023/04/08 01:11:10;;;;;;;;;;;;;;;13.08;56.32;101150.91;4940398;28;7571;-77
2023/04/08 01:13:41;;;;;;;;;;;;;;;13.09;55.87;101150.09;4938252;28;6995;-76
2023/04/08 01:16:12;;;;;;;;;;;;;;;13.09;55.86;101151.81;4937566;28;6990;-73
2023/04/08 01:18:42;;;;;;;;;;;;;;;13.07;56.02;101141.44;4926923;28;6986;-74
2023/04/08 01:21:12;;;;;;;;;;;;;;;13.07;55.83;101144.00;4948482;28;6790;-73
2023/04/08 01:23:51;;;;;;;;;;;;;;;13.09;56.13;101147.53;4929665;28;6993;-76
2023/04/08 01:26:24;;;;;;;;;;;;;;;13.07;56.24;101146.56;4962153;28;6804;-71
2023/04/08 01:28:55;;;;;;;;;;;;;;;13.05;55.74;101148.19;4941974;28;7041;-74
2023/04/08 01:31:24;;;;;;;;;;;;;;;13.04;55.76;101147.31;4952712;28;7254;-74
2023/04/08 01:33:51;;;;;;;;;;;;;;;13.03;55.76;101152.34;4945126;28;6792;-73
2023/04/08 01:36:20;;;;;;;;;;;;;;;13.05;56.08;101146.50;4953462;28;6784;-72
2023/04/08 01:38:48;;;;;;;;;;;;;;;13.06;55.73;101152.53;4915669;28;6991;-73
2023/04/08 01:41:17;;;;;;;;;;;;;;;13.06;56.69;101152.53;4943993;28;6808;-73
2023/04/08 01:43:43;;;;;;;;;;;;;;;13.06;55.96;101152.53;4958643;28;6956;-76
2023/04/08 01:46:12;;;;;;;;;;;;;;;13.05;55.66;101150.78;4939595;28;6788;-75
2023/04/08 01:48:40;;;;;;;;;;;;;;;13.04;56.18;101155.03;4948859;28;6876;-72
2023/04/08 01:51:08;;;;;;;;;;;;;;;13.03;56.18;101152.34;4925726;28;6987;-74
2023/04/08 01:53:33;;;;;;;;;;;;;;;13.03;56.40;101160.09;4950801;28;6818;-75
2023/04/08 01:56:11;;;;;;;;;;;;;;;13.03;55.85;101150.69;4944070;28;8978;-72
2023/04/08 01:58:41;;;;;;;;;;;;;;;13.04;56.07;101161.88;4958304;28;7213;-75
2023/04/08 02:01:15;;;;;;;;;;;;;;;13.04;56.31;101159.31;4948179;28;7183;-75
2023/04/08 02:03:44;;;;;;;;;;;;;;;13.04;56.67;101157.59;4931917;28;7085;-76
2023/04/08 02:06:10;;;;;;;;;;;;;;;13.06;56.42;101162.81;4932582;28;7402;-76
2023/04/08 02:08:35;;;;;;;;;;;;;;;13.07;56.40;101167.16;4938881;28;7477;-76
2023/04/08 02:11:02;;;;;;;;;;;;;;;13.05;56.10;101161.94;4954211;28;9429;-76
2023/04/08 02:13:30;;;;;;;;;;;;;;;13.05;55.96;101158.50;4944572;28;7115;-76
2023/04/08 02:16:22;;;;;;;;;;;;;;;13.03;55.94;101157.50;4944224;28;7002;-76
2023/04/08 02:19:01;;;;;;;;;;;;;;;13.00;56.38;101158.25;4944162;28;6820;-76
2023/04/08 02:21:36;;;;;;;;;;;;;;;12.99;56.06;101160.75;4944206;28;7273;-76
2023/04/08 02:24:06;;;;;;;;;;;;;;;12.99;56.77;101168.47;4959601;28;7252;-76
2023/04/08 02:26:38;;;;;;;;;;;;;;;13.00;56.08;101162.50;4956031;28;6816;-76
2023/04/08 02:29:08;;;;;;;;;;;;;;;13.01;56.06;101164.28;4936203;28;6832;-76
2023/04/08 02:31:35;;;;;;;;;;;;;;;13.02;56.15;101168.59;4943549;28;7164;-76
2023/04/08 02:34:01;;;;;;;;;;;;;;;13.02;56.61;101163.47;4937396;28;6788;-76
2023/04/08 02:36:27;;;;;;;;;;;;;;;13.00;56.17;101159.94;4939109;28;7039;-76
2023/04/08 02:38:53;;;;;;;;;;;;;;;13.00;56.50;101167.66;4940810;28;6772;-76
2023/04/08 02:41:18;;;;;;;;;;;;;;;13.02;55.97;101166.94;4945229;28;6780;-76
2023/04/08 02:43:46;;;;;;;;;;;;;;;13.02;56.49;101166.94;4943373;28;7244;-76
2023/04/08 02:46:12;;;;;;;;;;;;;;;13.01;56.23;101167.75;4941484;28;6972;-76
2023/04/08 02:48:38;;;;;;;;;;;;;;;13.01;56.12;101166.84;4956773;28;6780;-76
2023/04/08 02:51:04;;;;;;;;;;;;;;;13.03;56.99;101173.84;4943926;28;6772;-76
2023/04/08 02:53:29;;;;;;;;;;;;;;;13.04;56.99;101170.47;4942866;28;6774;-76
2023/04/08 02:55:55;;;;;;;;;;;;;;;13.06;56.69;101173.13;4959809;28;6977;-76
2023/04/08 02:58:20;;;;;;;;;;;;;;;13.07;56.78;101172.31;4944710;28;6791;-76
2023/04/08 03:00:46;;;;;;;;;;;;;;;13.06;56.54;101168.84;4927412;28;7227;-80
2023/04/08 03:03:12;;;;;;;;;;;;;;;13.08;56.39;101168.03;4939731;28;6983;-79
2023/04/08 03:05:37;;;;;;;;;;;;;;;13.07;56.30;101172.31;4938765;28;7100;-79
2023/04/08 03:08:03;;;;;;;;;;;;;;;13.06;56.65;101178.28;4939670;28;7075;-79
2023/04/08 03:10:29;;;;;;;;;;;;;;;13.08;56.58;101175.75;4947067;28;7286;-78
2023/04/08 03:12:54;;;;;;;;;;;;;;;13.10;56.37;101171.59;4961249;28;7120;-79
2023/04/08 03:15:20;;;;;;;;;;;;;;;13.10;56.49;101174.16;4947249;28;6767;-79
2023/04/08 03:17:46;;;;;;;;;;;;;;;13.10;56.44;101174.16;4941985;28;7255;-79
2023/04/08 03:20:11;;;;;;;;;;;;;;;13.08;56.97;101171.50;4943785;28;8458;-79
2023/04/08 03:22:37;;;;;;;;;;;;;;;13.08;56.22;101174.06;4931043;28;8534;-79
2023/04/08 03:25:03;;;;;;;;;;;;;;;13.06;56.64;101179.13;4939228;28;8476;-79
2023/04/08 03:27:29;;;;;;;;;;;;;;;13.05;56.42;101177.38;4945603;28;6884;-79
2023/04/08 03:29:56;;;;;;;;;;;;;;;13.05;56.60;101174.78;4952884;28;7260;-79
2023/04/08 03:32:22;;;;;;;;;;;;;;;13.08;56.56;101180.91;4926637;28;7015;-76
2023/04/08 03:34:49;;;;;;;;;;;;;;;13.07;56.62;101180.03;4926372;28;8476;-79
2023/04/08 03:37:16;;;;;;;;;;;;;;;13.05;56.71;101171.34;4955310;28;9550;-79
2023/04/08 03:39:42;;;;;;;;;;;;;;;13.05;56.23;101176.50;4947972;28;6824;-79
2023/04/08 03:42:08;;;;;;;;;;;;;;;13.03;56.76;101167.81;4947969;28;6848;-79
2023/04/08 03:44:33;;;;;;;;;;;;;;;13.04;56.36;101179.88;4950729;28;7222;-79
2023/04/08 03:46:59;;;;;;;;;;;;;;;13.05;56.72;101182.50;4943242;28;6983;-80
2023/04/08 03:49:24;;;;;;;;;;;;;;;13.03;57.06;101181.56;4939398;28;6761;-77
2023/04/08 03:51:50;;;;;;;;;;;;;;;13.03;56.05;101183.25;4943291;28;6772;-78
2023/04/08 03:54:16;;;;;;;;;;;;;;;13.05;56.45;101189.38;4951570;28;8532;-78
2023/04/08 03:56:41;;;;;;;;;;;;;;;13.05;56.67;101182.50;4940294;28;8690;-79
2023/04/08 03:59:07;;;;;;;;;;;;;;;13.07;56.42;101182.59;4936176;28;8497;-79
2023/04/08 04:01:33;;;;;;;;;;;;;;;13.09;56.58;101186.13;4936078;28;7210;-80
2023/04/08 04:03:58;;;;;;;;;;;;;;;13.10;57.07;101184.47;4919767;28;8451;-78
2023/04/08 04:06:25;;;;;;;;;;;;;;;13.12;57.11;101186.28;4930965;28;6806;-78
2023/04/08 04:08:56;;;;;;;;;;;;;;;13.13;56.47;101193.19;4940992;28;7198;-79
2023/04/08 04:11:23;;;;;;;;;;;;;;;13.12;56.90;101188.84;4943658;28;6800;-77
2023/04/08 04:13:49;;;;;;;;;;;;;;;13.13;56.39;101184.59;4934949;28;6796;-79
2023/04/08 04:16:15;;;;;;;;;;;;;;;13.12;56.50;101185.41;4943314;28;7099;-75
2023/04/08 04:18:40;;;;;;;;;;;;;;;13.12;56.23;101188.84;4919763;28;6948;-75
2023/04/08 04:21:06;;;;;;;;;;;;;;;13.10;57.10;101185.31;4940227;28;7394;-73
2023/04/08 04:23:32;;;;;;;;;;;;;;;13.10;56.68;101189.59;4938709;28;6836;-74
2023/04/08 04:25:58;;;;;;;;;;;;;;;13.10;56.59;101187.91;4942794;28;6946;-77
2023/04/08 04:28:23;;;;;;;;;;;;;;;13.11;56.90;101192.22;4938791;28;6960;-72
2023/04/08 04:30:49;;;;;;;;;;;;;;;13.11;56.39;101189.66;4937266;28;7452;-73
2023/04/08 04:33:14;;;;;;;;;;;;;;;13.12;56.79;101190.56;4938903;28;6776;-73
2023/04/08 04:35:40;;;;;;;;;;;;;;;13.12;56.67;101198.28;4931718;28;6764;-75
2023/04/08 04:38:09;;;;;;;;;;;;;;;13.12;56.76;101194.00;4925100;28;6961;-74
2023/04/08 04:40:36;;;;;;;;;;;;;;;13.14;56.23;101196.66;4916155;28;8604;-73
2023/04/08 04:43:01;;;;;;;;;;;;;;;13.11;56.35;101192.22;4930588;28;6971;-73
2023/04/08 04:45:27;;;;;;;;;;;;;;;13.10;57.10;101200.75;4957766;28;6776;-72
2023/04/08 04:47:52;;;;;;;;;;;;;;;13.09;56.68;101203.28;4945744;28;7195;-71
2023/04/08 04:50:18;;;;;;;;;;;;;;;13.07;56.91;101210.91;4924635;28;6965;-72
2023/04/08 04:52:44;;;;;;;;;;;;;;;13.05;56.81;101212.53;4946765;28;6791;-73
2023/04/08 04:55:09;;;;;;;;;;;;;;;13.04;56.67;101216.78;4939028;28;7400;-72
2023/04/08 04:57:35;;;;;;;;;;;;;;;13.07;57.35;101218.63;4942523;28;7194;-75
2023/04/08 05:00:00;;;;;;;;;;;;;;;13.05;57.04;101215.97;4957258;28;6787;-73
2023/04/08 05:02:26;;;;;;;;;;;;;;;13.05;57.29;101231.41;4946021;28;6808;-74
2023/04/08 05:04:54;;;;;;;;;;;;;;;13.06;57.27;101227.16;4946773;28;6920;-73
2023/04/08 05:07:21;;;;;;;;;;;;;;;13.07;56.33;101226.34;4957082;28;8550;-74
2023/04/08 05:09:46;;;;;;;;;;;;;;;13.08;56.40;101234.94;4949138;28;6777;-74
2023/04/08 05:12:12;;;;;;;;;;;;;;;13.10;56.95;101230.78;4947442;28;7154;-72
2023/04/08 05:14:38;;;;;;;;;;;;;;;13.10;57.24;101228.22;4927359;28;6955;-73
2023/04/08 05:17:04;;;;;;;;;;;;;;;13.09;57.22;101236.75;4946621;28;6768;-74
2023/04/08 05:19:30;;;;;;;;;;;;;;;13.10;57.40;101241.94;4929635;28;7037;-76
2023/04/08 05:21:56;;;;;;;;;;;;;;;13.11;57.30;101232.53;4961799;28;7189;-76
2023/04/08 05:24:21;;;;;;;;;;;;;;;13.11;57.32;101236.00;4931864;28;6821;-72
2023/04/08 05:26:51;;;;;;;;;;;;;;;13.10;57.03;101231.66;4959763;28;7027;-76
2023/04/08 05:29:18;;;;;;;;;;;;;;;13.10;56.73;101241.06;4944513;28;6880;-72
2023/04/08 05:31:44;;;;;;;;;;;;;;;13.11;56.86;101240.28;4958249;28;7124;-72
2023/04/08 05:34:10;;;;;;;;;;;;;;;13.12;57.38;101234.31;4957421;28;6780;-72
2023/04/08 05:36:36;;;;;;;;;;;;;;;13.12;57.63;101234.31;4939371;28;6831;-73
2023/04/08 05:39:02;;;;;;;;;;;;;;;13.12;57.30;101236.88;4943345;28;6776;-73
2023/04/08 05:41:27;;;;;;;;;;;;;;;13.12;56.96;101242.91;4961140;28;7025;-72
2023/04/08 05:43:53;;;;;;;;;;;;;;;13.12;57.36;101242.91;4942622;28;7032;-76
2023/04/08 05:46:19;;;;;;;;;;;;;;;13.15;57.56;101243.06;4963014;28;7011;-73
2023/04/08 05:48:44;;;;;;;;;;;;;;;13.17;56.90;101243.13;4951592;28;7012;-74
2023/04/08 05:51:14;;;;;;;;;;;;;;;13.17;57.41;101254.34;4948854;28;6840;-72
2023/04/08 05:53:40;;;;;;;;;;;;;;;13.20;57.07;101258.75;4949524;28;6784;-71
2023/04/08 05:56:06;;;;;;;;;;;;;;;13.21;56.78;101260.53;4938322;28;6960;-72
2023/04/08 05:58:32;;;;;;;;;;;;;;;13.22;57.22;101261.38;4946323;28;6939;-73
2023/04/08 06:00:57;;;;;;;;;;;;;;;13.23;57.73;101265.72;4946709;28;6983;-73
2023/04/08 06:03:23;;;;;;;;;;;;;;;13.24;57.79;101267.53;4948345;28;6780;-72
2023/04/08 06:05:49;;;;;;;;;;;;;;;13.27;56.90;101265.09;4948944;28;6777;-72
2023/04/08 06:08:15;;;;;;;;;;;;;;;13.28;57.44;101269.44;4964270;28;7008;-72
2023/04/08 06:10:50;;;;;;;;;;;;;;;13.30;57.45;101272.97;4948794;28;6772;-75
2023/04/08 06:13:16;;;;;;;;;;;;;;;13.31;56.69;101265.31;4946945;28;7537;-76
2023/04/08 06:15:42;;;;;;;;;;;;;;;13.34;56.82;101267.19;4963929;28;6804;-75
2023/04/08 06:18:08;;;;;;;;;;;;;;;13.35;57.51;101266.38;4932338;28;6968;-72
2023/04/08 06:20:35;;;;;;;;;;;;;;;13.39;57.77;101270.84;4948011;28;6773;-73
2023/04/08 06:23:00;;;;;;;;;;;;;;;13.44;57.79;101278.81;4948130;28;7052;-71
2023/04/08 06:25:26;;;;;;;;;;;;;;;13.46;57.19;101285.84;4948123;28;6788;-75
2023/04/08 06:27:52;;;;;;;;;;;;;;;13.49;57.33;101286.81;4962695;28;7100;-72
2023/04/08 06:30:17;;;;;;;;;;;;;;;13.48;57.13;101285.94;4946110;28;6990;-71
2023/04/08 06:32:46;;;;;;;;;;;;;;;13.47;56.95;101284.13;4947669;28;6780;-74
2023/04/08 06:35:12;;;;;;;;;;;;;;;13.46;56.99;101293.56;4949176;28;6800;-74
2023/04/08 06:37:37;;;;;;;;;;;;;;;13.49;57.55;101297.09;4949658;28;6796;-72
2023/04/08 06:40:07;;;;;;;;;;;;;;;13.54;56.92;101298.22;4965280;28;7342;-72
2023/04/08 06:42:32;;;;;;;;;;;;;;;13.57;57.52;101300.94;4946524;28;6785;-75
2023/04/08 06:44:58;;;;;;;;;;;;;;;13.57;56.73;101295.81;4940403;28;6943;-72
2023/04/08 06:47:24;;;;;;;;;;;;;;;13.57;57.39;101301.84;4947949;28;7017;-73
2023/04/08 06:49:50;;;;;;;;;;;;;;;13.59;57.63;101295.06;4943848;28;6800;-72
2023/04/08 06:52:16;;;;;;;;;;;;;;;13.66;57.33;101301.41;4946155;28;6784;-75
2023/04/08 06:54:41;;;;;;;;;;;;;;;13.70;57.24;101300.75;4948967;28;6784;-73
2023/04/08 06:57:07;;;;;;;;;;;;;;;13.74;57.06;101300.09;4939949;28;7413;-75
2023/04/08 06:59:33;;;;;;;;;;;;;;;13.79;57.00;101302.91;4962817;28;6776;-72
2023/04/08 07:01:59;;;;;;;;;;;;;;;13.80;57.65;101307.25;4938508;28;6955;-73
2023/04/08 07:04:24;;;;;;;;;;;;;;;13.84;56.80;101308.28;4946765;28;7475;-73
2023/04/08 07:06:50;;;;;;;;;;;;;;;13.86;56.76;101314.41;4939127;28;7372;-72
2023/04/08 07:09:16;;;;;;;;;;;;;;;13.91;57.29;101312.94;4938200;28;8483;-73
2023/04/08 07:11:41;;;;;;;;;;;;;;;13.93;57.21;101319.03;4944465;28;6780;-72
2023/04/08 07:14:07;;;;;;;;;;;;;;;13.91;57.50;101323.25;4962658;28;6780;-76
2023/04/08 07:16:33;;;;;;;;;;;;;;;13.90;56.69;101326.59;4946839;28;6839;-73
2023/04/08 07:18:59;;;;;;;;;;;;;;;13.85;57.19;101325.50;4940771;28;6927;-76
2023/04/08 07:21:25;;;;;;;;;;;;;;;13.81;57.47;101332.19;4962793;28;7217;-73
2023/04/08 07:23:50;;;;;;;;;;;;;;;13.78;57.08;101337.22;4939679;28;7053;-74
2023/04/08 07:26:16;;;;;;;;;;;;;;;13.71;57.18;101330.88;4945928;28;6772;-73
2023/04/08 07:28:41;;;;;;;;;;;;;;;13.69;56.92;101335.03;4962291;28;6783;-74
2023/04/08 07:31:16;;;;;;;;;;;;;;;13.71;57.24;101337.72;4963287;28;6764;-73
2023/04/08 07:33:44;;;;;;;;;;;;;;;13.71;56.79;101345.44;4946367;28;6816;-74
2023/04/08 07:36:11;;;;;;;;;;;;;;;13.69;57.14;101347.94;4941691;28;7347;-72
2023/04/08 07:38:40;;;;;;;;;;;;;;;13.69;57.54;101353.06;4962081;28;7044;-73
2023/04/08 07:41:05;;;;;;;;;;;;;;;13.65;56.89;101351.16;4945826;28;6785;-73
2023/04/08 07:43:38;;;;;;;;;;;;;;;13.65;56.89;101348.59;4946941;28;7145;-72
2023/04/08 07:46:05;;;;;;;;;;;;;;;13.72;57.68;101350.69;4937920;28;6820;-72
2023/04/08 07:48:32;;;;;;;;;;;;;;;13.79;57.07;101359.59;4937934;28;6842;-75
2023/04/08 07:51:06;;;;;;;;;;;;;;;13.84;56.99;101358.13;4946616;28;6788;-72
2023/04/08 07:53:33;;;;;;;;;;;;;;;13.89;56.67;101356.66;4946973;28;7007;-74
2023/04/08 07:56:00;;;;;;;;;;;;;;;13.96;57.49;101359.56;4922340;28;6985;-72
2023/04/08 07:58:25;;;;;;;;;;;;;;;14.01;56.62;101366.69;4940734;28;6900;-74
2023/04/08 08:00:51;;;;;;;;;;;;;;;14.06;56.89;101358.31;4946530;28;6787;-72
2023/04/08 08:03:17;;;;;;;;;;;;;;;14.11;56.79;101367.16;4961363;28;6824;-75
2023/04/08 08:05:43;;;;;;;;;;;;;;;14.18;56.64;101369.19;4946509;28;7042;-72
2023/04/08 08:08:10;;;;;;;;;;;;;;;14.23;56.16;101372.91;4945880;28;7104;-75
2023/04/08 08:10:39;;;;;;;;;;;;;;;14.29;56.84;101368.06;4938406;28;6974;-73
2023/04/08 08:13:07;;;;;;;;;;;;;;;14.38;56.72;101366.69;4938438;28;6975;-72
2023/04/08 08:15:33;;;;;;;;;;;;;;;14.50;56.57;101369.88;4960880;28;6845;-73
2023/04/08 08:17:59;;;;;;;;;;;;;;;14.64;56.24;101369.63;4962667;28;7280;-73
2023/04/08 08:20:25;;;;;;;;;;;;;;;14.75;55.76;101370.19;4959687;28;6972;-74
2023/04/08 08:22:50;;;;;;;;;;;;;;;14.82;55.62;101380.84;4947992;28;6780;-73
2023/04/08 08:25:16;;;;;;;;;;;;;;;14.90;55.56;101372.59;4962295;28;7154;-72
2023/04/08 08:27:42;;;;;;;;;;;;;;;14.97;54.66;101377.22;4960719;28;7031;-75
2023/04/08 08:30:08;;;;;;;;;;;;;;;15.05;54.58;101378.44;4928701;28;6945;-72
2023/04/08 08:32:34;;;;;;;;;;;;;;;15.12;54.66;101388.22;4960603;28;6848;-73
2023/04/08 08:35:00;;;;;;;;;;;;;;;15.21;54.08;101384.28;4944630;28;6972;-75
2023/04/08 08:37:26;;;;;;;;;;;;;;;15.29;54.66;101388.09;4946713;28;6780;-72
2023/04/08 08:39:52;;;;;;;;;;;;;;;15.37;54.15;101391.03;4963522;28;6804;-73
2023/04/08 08:42:25;;;;;;;;;;;;;;;15.45;54.44;101388.75;4938296;29;7009;-73
2023/04/08 08:44:51;;;;;;;;;;;;;;;15.55;53.42;101385.78;4945989;28;7019;-72
2023/04/08 08:47:16;;;;;;;;;;;;;;;15.62;53.51;101392.09;4945420;28;7426;-73
2023/04/08 08:49:43;;;;;;;;;;;;;;;15.60;53.45;101394.59;4961806;28;6780;-73
2023/04/08 08:52:10;;;;;;;;;;;;;;;15.59;52.78;101397.13;4959178;28;6856;-73
2023/04/08 08:54:36;;;;;;;;;;;;;;;15.52;53.09;101401.13;4945583;28;6860;-73
2023/04/08 08:57:02;;;;;;;;;;;;;;;15.48;52.89;101401.84;4945414;28;6807;-73
2023/04/08 08:59:28;;;;;;;;;;;;;;;15.48;52.95;101401.84;4960723;28;6772;-75
2023/04/08 09:01:53;;;;;;;;;;;;;;;15.54;53.19;101399.50;4943918;28;6968;-75
2023/04/08 09:04:21;;;;;;;;;;;;;;;15.63;53.10;101404.19;4960443;28;6789;-73
2023/04/08 09:06:49;;;;;;;;;;;;;;;15.74;53.59;101402.97;4938502;28;6792;-72
2023/04/08 09:09:16;;;;;;;;;;;;;;;15.89;53.26;101404.44;4938033;28;6972;-73
2023/04/08 09:11:45;;;;;;;;;;;;;;;16.07;52.71;101401.75;4946679;28;6995;-73
2023/04/08 09:14:24;;;;;;;;;;;;;;;16.34;53.23;101406.31;4936695;28;6821;-72
2023/04/08 09:16:51;;;;;;;;;;;;;;;16.62;52.50;101405.69;4946743;28;6789;-75
2023/04/08 09:19:17;;;;;;;;;;;;;;;16.87;52.12;101413.50;4959136;28;7175;-73
2023/04/08 09:21:43;;;;;;;;;;;;;;;17.07;51.41;101417.78;4945557;28;6780;-73
2023/04/08 09:24:28;;;;;;;;;;;;;;;17.30;50.92;101410.00;4945740;28;6792;-72
2023/04/08 09:26:53;;;;;;;;;;;;;;;17.51;50.45;101397.72;4943471;28;6952;-72
2023/04/08 09:29:25;;;;;;;;;;;;;;;17.69;49.84;101400.09;4953404;28;6971;-72
2023/04/08 09:31:59;;;;;;;;;;;;;;;17.96;49.64;101407.03;4962417;28;6991;-72
2023/04/08 09:34:29;;;;;;;;;;;;;;;18.11;49.13;101396.34;4942881;28;6792;-73
2023/04/08 09:36:55;;;;;;;;;;;;;;;18.15;48.13;101405.97;4962976;28;6808;-73
2023/04/08 09:39:21;;;;;;;;;;;;;;;18.11;48.13;101407.59;4946533;28;6915;-75
2023/04/08 09:41:49;;;;;;;;;;;;;;;18.04;47.61;101406.50;4939698;28;6800;-74
2023/04/08 09:44:15;;;;;;;;;;;;;;;18.03;47.66;101401.22;4930307;28;7177;-72
2023/04/08 09:46:55;;;;;;;;;;;;;;;18.12;48.28;101395.53;4927451;28;7055;-74
2023/04/08 09:49:57;;;;;;;;;;;;;;;18.35;47.95;101409.25;4950826;28;6820;-72
2023/04/08 09:52:32;;;;;;;;;;;;;;;18.70;47.75;101409.44;4951241;28;6812;-73
2023/04/08 09:55:05;;;;;;;;;;;;;;;19.19;47.67;101409.16;4963026;28;6816;-72
2023/04/08 09:57:45;;;;;;;;;;;;;;;19.64;46.37;101399.97;4943534;28;7001;-73
2023/04/08 10:00:17;;;;;;;;;;;;;;;19.85;44.93;101406.59;4963523;28;7231;-76
2023/04/08 10:03:24;;;;;;;;;;;;;;;19.71;44.04;101401.91;4948525;28;7025;-74
2023/04/08 10:05:53;;;;;;;;;;;;;;;19.74;44.40;101403.72;4962271;28;7223;-73
2023/04/08 10:08:19;;;;;;;;;;;;;;;20.35;44.66;101398.28;4940187;28;7333;-73
2023/04/08 10:10:45;;;;;;;;;;;;;;;21.23;43.75;101396.72;4944256;28;6848;-74
2023/04/08 10:13:12;;;;;;;;;;;;;;;22.28;43.35;101395.97;4946252;28;7007;-73
2023/04/08 10:15:39;;;;;;;;;;;;;;;22.86;41.64;101384.59;4939505;28;7041;-73
2023/04/08 10:18:08;;;;;;;;;;;;;;;22.70;39.90;101386.16;4964192;28;7265;-72
2023/04/08 10:20:33;;;;;;;;;;;;;;;22.11;40.39;101382.63;4948778;28;7251;-74
2023/04/08 10:23:08;;;;;;;;;;;;;;;21.88;40.59;101385.75;4949463;28;6843;-72
2023/04/08 10:25:47;;;;;;;;;;;;;;;22.11;40.73;101388.75;4946620;28;6824;-73
2023/04/08 10:28:19;;;;;;;;;;;;;;;22.69;40.94;101395.72;4925913;28;7237;-72
2023/04/08 10:30:48;;;;;;;;;;;;;;;23.44;39.89;101384.41;4949116;28;6872;-76
2023/04/08 10:33:22;;;;;;;;;;;;;;;23.64;38.38;101381.09;4948263;28;6984;-72
2023/04/08 10:36:14;;;;;;;;;;;;;;;23.16;37.67;101386.69;4946740;28;8596;-73
2023/04/08 10:38:41;;;;;;;;;;;;;;;22.53;37.91;101386.78;4949987;28;6876;-75
2023/04/08 10:41:20;;;;;;;;;;;;;;;22.27;38.51;101383.78;4947536;28;6860;-75
2023/04/08 10:43:46;;;;;;;;;;;;;;;;;;4948546;28;6812;-72
2023/04/08 10:46:12;;;;;;;;;;;;;;;22.69;38.02;101377.41;4949186;28;6784;-74
2023/04/08 10:48:37;;;;;;;;;;;;;;;22.84;37.81;101368.91;4947856;28;7287;-72
2023/04/08 10:51:04;;;;;;;;;;;;;;;22.83;37.42;101377.59;4963184;28;6795;-76
2023/04/08 10:53:38;;;;;;;;;;;;;;;22.64;37.26;101365.16;4947556;28;6820;-72
2023/04/08 10:56:12;;;;;;;;;;;;;;;22.32;37.36;101369.94;4938999;28;7082;-74
2023/04/08 10:58:55;;;;;;;;;;;;;;;22.27;37.92;101363.75;4947381;28;8854;-73
2023/04/08 11:01:21;;;;;;;;;;;;;;;22.20;37.81;101367.09;4947845;28;6946;-72
2023/04/08 11:03:48;;;;;;;;;;;;;;;21.94;37.35;101367.59;4962495;28;6865;-73
2023/04/08 11:06:14;;;;;;;;;;;;;;;21.59;37.63;101366.13;4938280;28;7036;-74
2023/04/08 11:08:40;;;;;;;;;;;;;;;21.21;37.50;101361.94;4962541;28;7027;-74
2023/04/08 11:11:10;;;;;;;;;;;;;;;20.88;38.03;101368.25;4949756;28;6827;-74
2023/04/08 11:13:41;;;;;;;;;;;;;;;20.64;38.27;101365.97;4948033;28;6816;-74
2023/04/08 11:16:08;;;;;;;;;;;;;;;20.45;38.86;101364.66;4962845;28;6796;-75
2023/04/08 11:18:38;;;;;;;;;;;;;;;20.31;38.82;101367.84;4947007;28;7023;-74
2023/04/08 11:21:08;;;;;;;;;;;;;;;20.18;39.25;101363.16;4962424;28;6796;-72
2023/04/08 11:23:35;;;;;;;;;;;;;;;20.06;39.22;101369.84;4938546;28;6849;-74
2023/04/08 11:26:02;;;;;;;;;;;;;;;19.96;39.44;101365.25;4949083;28;6993;-72
2023/04/08 11:28:29;;;;;;;;;;;;;;;19.88;39.54;101358.97;4945839;28;6792;-73
2023/04/08 11:30:55;;;;;;;;;;;;;;;19.89;40.01;101361.59;4961233;28;6822;-74
2023/04/08 11:33:23;;;;;;;;;;;;;;;20.00;39.58;101371.44;4945391;28;6856;-74
2023/04/08 11:35:50;;;;;;;;;;;;;;;20.12;39.71;101369.13;4962421;28;7231;-73
2023/04/08 11:38:20;;;;;;;;;;;;;;;20.23;39.57;101377.19;4947094;28;6983;-73
2023/04/08 11:40:58;;;;;;;;;;;;;;;20.24;39.11;101379.84;4947704;28;8371;-75
2023/04/08 11:43:25;;;;;;;;;;;;;;;20.04;38.77;101381.94;4959304;28;7480;-72
2023/04/08 11:45:51;;;;;;;;;;;;;;;19.72;38.38;101379.41;4946378;28;6949;-73
2023/04/08 11:48:17;;;;;;;;;;;;;;;19.42;39.07;101375.16;4946623;28;6975;-75
2023/04/08 11:50:44;;;;;;;;;;;;;;;19.20;39.27;101382.34;4937567;28;6986;-73
2023/04/08 11:53:20;;;;;;;;;;;;;;;19.11;39.93;101376.88;4945042;28;6792;-74
2023/04/08 11:55:47;;;;;;;;;;;;;;;19.12;39.71;101381.22;4955653;28;6788;-72
2023/04/08 11:58:13;;;;;;;;;;;;;;;19.11;39.92;101382.06;4937980;28;6983;-73
2023/04/08 12:00:39;;;;;;;;;;;;;;;19.11;39.73;101380.38;4958940;28;7456;-74
2023/04/08 12:03:06;;;;;;;;;;;;;;;19.13;39.62;101383.88;4942340;28;6856;-73
2023/04/08 12:05:32;;;;;;;;;;;;;;;19.19;39.90;101382.31;4941184;28;6855;-74
2023/04/08 12:07:57;;;;;;;;;;;;;;;19.08;39.52;101384.59;4947414;28;7156;-74
2023/04/08 12:10:26;;;;;;;;;;;;;;;18.87;39.93;101380.50;4938337;28;6819;-73
2023/04/08 12:12:51;;;;;;;;;;;;;;;18.71;39.89;101382.63;4960548;28;6939;-73
2023/04/08 12:15:17;;;;;;;;;;;;;;;18.62;40.26;101377.16;4936642;28;7239;-73
2023/04/08 12:17:43;;;;;;;;;;;;;;;18.56;40.90;101377.84;4961479;28;7095;-72
2023/04/08 12:20:11;;;;;;;;;;;;;;;18.53;40.47;101380.38;4953762;28;7208;-72
2023/04/08 12:22:36;;;;;;;;;;;;;;;18.48;40.84;101370.69;4959169;28;6800;-72
2023/04/08 12:25:03;;;;;;;;;;;;;;;18.55;40.76;101383.88;4961126;28;6779;-76
2023/04/08 12:27:32;;;;;;;;;;;;;;;18.72;41.20;101379.19;4946030;28;6979;-73
2023/04/08 12:29:59;;;;;;;;;;;;;;;18.91;40.67;101374.56;4942777;28;6869;-72
2023/04/08 12:32:25;;;;;;;;;;;;;;;19.07;39.93;101375.03;4961597;28;6877;-76
2023/04/08 12:34:51;;;;;;;;;;;;;;;19.10;39.80;101382.91;4961640;28;6800;-72
2023/04/08 12:37:19;;;;;;;;;;;;;;;19.03;39.91;101373.19;4937086;28;7063;-71
2023/04/08 12:39:46;;;;;;;;;;;;;;;18.97;39.77;101377.34;4929915;28;6995;-75
2023/04/08 12:42:12;;;;;;;;;;;;;;;18.93;39.60;101380.69;4961422;28;6796;-73
2023/04/08 12:44:38;;;;;;;;;;;;;;;18.90;39.60;101380.59;4938417;28;7191;-72
2023/04/08 12:47:03;;;;;;;;;;;;;;;18.84;39.12;101377.84;4962445;28;6800;-72
2023/04/08 12:49:29;;;;;;;;;;;;;;;18.85;39.10;101382.19;4943485;28;6976;-73
2023/04/08 12:51:55;;;;;;;;;;;;;;;18.82;39.13;101382.97;4938099;28;6974;-71